sensor_id;sensor_type;location;lat;lon;timestamp;pressure;altitude;pressure_sealevel;temperature;humidity
80124;BME280;69433;48.642;9.142;2023-07-24T00:02:23;96389.53;;;23.93;43.01
80124;BME280;69433;48.642;9.142;2023-07-24T00:04:48;96364.91;;;23.82;43.59
80124;BME280;69433;48.642;9.142;2023-07-24T00:07:14;96353.91;;;23.76;43.08
80124;BME280;69433;48.642;9.142;2023-07-24T00:09:39;96357.88;;;23.72;43.75
80124;BME280;69433;48.642;9.142;2023-07-24T00:12:05;96364.94;;;23.65;43.39
80124;BME280;69433;48.642;9.142;2023-07-24T00:14:30;96357.66;;;23.66;43.52
80124;BME280;69433;48.642;9.142;2023-07-24T00:16:55;96360.16;;;23.73;43.47
80124;BME280;69433;48.642;9.142;2023-07-24T00:19:21;96368.72;;;23.68;43.45
80124;BME280;69433;48.642;9.142;2023-07-24T00:21:46;96360.78;;;23.77;43.32
80124;BME280;69433;48.642;9.142;2023-07-24T00:24:11;96367.59;;;23.82;43.35
80124;BME280;69433;48.642;9.142;2023-07-24T00:26:37;96355.75;;;23.79;43.34
80124;BME280;69433;48.642;9.142;2023-07-24T00:29:02;96347.25;;;23.68;43.38
80124;BME280;69433;48.642;9.142;2023-07-24T00:31:27;96355.53;;;23.74;43.10
80124;BME280;69433;48.642;9.142;2023-07-24T00:33:53;96356.19;;;23.78;43.22
80124;BME280;69433;48.642;9.142;2023-07-24T00:36:18;96353.16;;;23.76;43.43
80124;BME280;69433;48.642;9.142;2023-07-24T00:38:43;96346.88;;;23.82;43.11
80124;BME280;69433;48.642;9.142;2023-07-24T00:41:08;96346.75;;;23.86;43.18
80124;BME280;69433;48.642;9.142;2023-07-24T00:43:34;96338.56;;;23.77;43.42
80124;BME280;69433;48.642;9.142;2023-07-24T00:45:59;96346.53;;;23.80;43.27
80124;BME280;69433;48.642;9.142;2023-07-24T00:48:24;96344.13;;;23.70;43.56
80124;BME280;69433;48.642;9.142;2023-07-24T00:50:50;96350.47;;;23.63;43.75
80124;BME280;69433;48.642;9.142;2023-07-24T00:53:17;96343.34;;;23.56;44.27
80124;BME280;69433;48.642;9.142;2023-07-24T00:55:45;96335.72;;;23.55;44.16
80124;BME280;69433;48.642;9.142;2023-07-24T00:58:11;96322.00;;;23.65;43.43
80124;BME280;69433;48.642;9.142;2023-07-24T01:00:40;96311.94;;;23.70;43.08
80124;BME280;69433;48.642;9.142;2023-07-24T01:03:05;96315.00;;;23.55;43.58
80124;BME280;69433;48.642;9.142;2023-07-24T01:05:31;96318.13;;;23.54;43.78
80124;BME280;69433;48.642;9.142;2023-07-24T01:07:57;96321.38;;;23.61;43.28
80124;BME280;69433;48.642;9.142;2023-07-24T01:10:22;96306.91;;;23.72;42.99
80124;BME280;69433;48.642;9.142;2023-07-24T01:13:08;96295.84;;;23.70;42.79
80124;BME280;69433;48.642;9.142;2023-07-24T01:15:42;96296.34;;;23.64;42.90
80124;BME280;69433;48.642;9.142;2023-07-24T01:18:11;96302.03;;;23.66;42.97
80124;BME280;69433;48.642;9.142;2023-07-24T01:20:43;96299.69;;;23.68;42.93
80124;BME280;69433;48.642;9.142;2023-07-24T01:26:16;96299.00;;;23.52;43.03
80124;BME280;69433;48.642;9.142;2023-07-24T01:28:43;96295.38;;;23.58;42.64
80124;BME280;69433;48.642;9.142;2023-07-24T01:31:09;96293.34;;;23.62;42.54
80124;BME280;69433;48.642;9.142;2023-07-24T01:33:34;96283.59;;;23.68;42.89
80124;BME280;69433;48.642;9.142;2023-07-24T01:36:01;96290.00;;;23.58;43.25
80124;BME280;69433;48.642;9.142;2023-07-24T01:38:28;96293.53;;;23.55;43.60
80124;BME280;69433;48.642;9.142;2023-07-24T01:40:54;96297.22;;;23.61;43.24
80124;BME280;69433;48.642;9.142;2023-07-24T01:43:19;96294.06;;;23.50;43.48
80124;BME280;69433;48.642;9.142;2023-07-24T01:45:45;96299.06;;;23.48;43.96
80124;BME280;69433;48.642;9.142;2023-07-24T01:48:10;96303.22;;;23.53;43.67
80124;BME280;69433;48.642;9.142;2023-07-24T01:50:35;96303.28;;;23.49;43.92
80124;BME280;69433;48.642;9.142;2023-07-24T01:53:01;96301.59;;;23.55;43.39
80124;BME280;69433;48.642;9.142;2023-07-24T01:55:26;96295.38;;;23.58;43.63
80124;BME280;69433;48.642;9.142;2023-07-24T01:57:52;96292.78;;;23.55;43.56
80124;BME280;69433;48.642;9.142;2023-07-24T02:00:17;96280.84;;;23.43;44.17
80124;BME280;69433;48.642;9.142;2023-07-24T02:02:42;96286.50;;;23.45;44.00
80124;BME280;69433;48.642;9.142;2023-07-24T02:05:08;96281.84;;;23.49;43.75
80124;BME280;69433;48.642;9.142;2023-07-24T02:07:33;96267.00;;;23.45;43.92
80124;BME280;69433;48.642;9.142;2023-07-24T02:09:58;96268.94;;;23.44;44.06
80124;BME280;69433;48.642;9.142;2023-07-24T02:12:24;96267.00;;;23.45;43.78
80124;BME280;69433;48.642;9.142;2023-07-24T02:14:49;96265.38;;;23.47;44.24
80124;BME280;69433;48.642;9.142;2023-07-24T02:17:17;96264.56;;;23.50;43.81
80124;BME280;69433;48.642;9.142;2023-07-24T02:19:42;96270.72;;;23.35;44.60
80124;BME280;69433;48.642;9.142;2023-07-24T02:22:08;96264.28;;;23.32;44.16
80124;BME280;69433;48.642;9.142;2023-07-24T02:24:33;96251.63;;;23.33;44.15
80124;BME280;69433;48.642;9.142;2023-07-24T02:26:58;96251.31;;;23.43;43.93
80124;BME280;69433;48.642;9.142;2023-07-24T02:29:23;96251.22;;;23.47;43.84
80124;BME280;69433;48.642;9.142;2023-07-24T02:31:50;96257.53;;;23.40;43.79
80124;BME280;69433;48.642;9.142;2023-07-24T02:34:15;96250.78;;;23.36;44.21
80124;BME280;69433;48.642;9.142;2023-07-24T02:36:40;96250.66;;;23.39;43.93
80124;BME280;69433;48.642;9.142;2023-07-24T02:39:06;96240.78;;;23.36;44.11
80124;BME280;69433;48.642;9.142;2023-07-24T02:41:32;96244.13;;;23.40;44.03
80124;BME280;69433;48.642;9.142;2023-07-24T02:43:57;96240.78;;;23.36;43.72
80124;BME280;69433;48.642;9.142;2023-07-24T02:46:23;96233.59;;;23.33;43.92
80124;BME280;69433;48.642;9.142;2023-07-24T02:48:49;96239.38;;;23.31;43.83
80124;BME280;69433;48.642;9.142;2023-07-24T02:51:14;96233.81;;;23.26;44.17
80124;BME280;69433;48.642;9.142;2023-07-24T02:53:40;96227.69;;;23.25;43.98
80124;BME280;69433;48.642;9.142;2023-07-24T02:56:05;96218.88;;;23.25;44.08
80124;BME280;69433;48.642;9.142;2023-07-24T02:58:30;96222.63;;;23.27;44.14
80124;BME280;69433;48.642;9.142;2023-07-24T03:01:05;96227.16;;;23.30;44.00
80124;BME280;69433;48.642;9.142;2023-07-24T03:03:32;96230.03;;;23.23;44.24
80124;BME280;69433;48.642;9.142;2023-07-24T03:05:57;96216.91;;;23.13;44.26
80124;BME280;69433;48.642;9.142;2023-07-24T03:08:23;96228.19;;;23.20;44.22
80124;BME280;69433;48.642;9.142;2023-07-24T03:10:48;96219.72;;;23.22;44.00
80124;BME280;69433;48.642;9.142;2023-07-24T03:13:13;96221.44;;;23.16;44.15
80124;BME280;69433;48.642;9.142;2023-07-24T03:15:39;96213.69;;;23.18;44.04
80124;BME280;69433;48.642;9.142;2023-07-24T03:18:05;96208.03;;;23.16;44.23
80124;BME280;69433;48.642;9.142;2023-07-24T03:20:30;96219.94;;;23.15;44.13
80124;BME280;69433;48.642;9.142;2023-07-24T03:22:56;96218.63;;;23.07;44.31
80124;BME280;69433;48.642;9.142;2023-07-24T03:25:21;96209.66;;;23.26;44.18
80124;BME280;69433;48.642;9.142;2023-07-24T03:27:47;96203.84;;;23.69;43.11
80124;BME280;69433;48.642;9.142;2023-07-24T03:30:12;96212.75;;;23.91;42.76
80124;BME280;69433;48.642;9.142;2023-07-24T03:32:39;96209.53;;;24.09;42.23
80124;BME280;69433;48.642;9.142;2023-07-24T03:35:06;96203.06;;;24.19;43.21
80124;BME280;69433;48.642;9.142;2023-07-24T03:37:32;96205.44;;;24.30;42.44
80124;BME280;69433;48.642;9.142;2023-07-24T03:39:59;96214.25;;;24.30;42.01
80124;BME280;69433;48.642;9.142;2023-07-24T03:42:29;96210.50;;;24.28;42.13
80124;BME280;69433;48.642;9.142;2023-07-24T03:44:56;96189.75;;;24.28;42.04
80124;BME280;69433;48.642;9.142;2023-07-24T03:47:22;96199.09;;;24.24;41.86
80124;BME280;69433;48.642;9.142;2023-07-24T03:49:47;96209.84;;;24.24;41.77
80124;BME280;69433;48.642;9.142;2023-07-24T03:52:12;96205.22;;;24.24;41.83
80124;BME280;69433;48.642;9.142;2023-07-24T03:54:38;96204.47;;;24.24;41.98
80124;BME280;69433;48.642;9.142;2023-07-24T03:57:03;96207.56;;;24.22;42.23
80124;BME280;69433;48.642;9.142;2023-07-24T03:59:30;96218.31;;;24.22;41.96
80124;BME280;69433;48.642;9.142;2023-07-24T04:01:56;96221.00;;;24.22;42.13
80124;BME280;69433;48.642;9.142;2023-07-24T04:04:21;96205.66;;;24.23;41.93
80124;BME280;69433;48.642;9.142;2023-07-24T04:06:47;96199.94;;;24.21;42.02
80124;BME280;69433;48.642;9.142;2023-07-24T04:09:12;96206.84;;;24.22;42.34
80124;BME280;69433;48.642;9.142;2023-07-24T04:11:40;96195.66;;;24.23;42.04
80124;BME280;69433;48.642;9.142;2023-07-24T04:14:06;96190.75;;;24.22;41.94
80124;BME280;69433;48.642;9.142;2023-07-24T04:16:31;96182.22;;;24.23;41.94
80124;BME280;69433;48.642;9.142;2023-07-24T04:18:56;96180.63;;;24.26;42.10
80124;BME280;69433;48.642;9.142;2023-07-24T04:21:22;96184.38;;;24.28;42.12
80124;BME280;69433;48.642;9.142;2023-07-24T04:23:56;96177.94;;;24.26;41.98
80124;BME280;69433;48.642;9.142;2023-07-24T04:26:22;96169.97;;;24.22;42.23
80124;BME280;69433;48.642;9.142;2023-07-24T04:28:47;96160.63;;;24.14;41.97
80124;BME280;69433;48.642;9.142;2023-07-24T04:31:12;96153.63;;;24.17;42.18
80124;BME280;69433;48.642;9.142;2023-07-24T04:33:38;96153.63;;;24.17;42.35
80124;BME280;69433;48.642;9.142;2023-07-24T04:36:04;96153.31;;;24.15;42.09
80124;BME280;69433;48.642;9.142;2023-07-24T04:38:29;96153.75;;;24.13;42.33
80124;BME280;69433;48.642;9.142;2023-07-24T04:40:55;96151.06;;;24.13;42.23
80124;BME280;69433;48.642;9.142;2023-07-24T04:43:28;96157.31;;;24.10;42.22
80124;BME280;69433;48.642;9.142;2023-07-24T04:45:54;96161.94;;;24.10;42.23
80124;BME280;69433;48.642;9.142;2023-07-24T04:48:19;96152.81;;;24.07;42.24
80124;BME280;69433;48.642;9.142;2023-07-24T04:50:45;96156.81;;;24.02;42.44
80124;BME280;69433;48.642;9.142;2023-07-24T04:53:10;96146.91;;;23.99;42.62
80124;BME280;69433;48.642;9.142;2023-07-24T04:55:35;96142.28;;;24.00;42.33
80124;BME280;69433;48.642;9.142;2023-07-24T04:58:00;96150.78;;;23.98;42.56
80124;BME280;69433;48.642;9.142;2023-07-24T05:00:26;96139.28;;;23.98;42.81
80124;BME280;69433;48.642;9.142;2023-07-24T05:02:52;96159.59;;;23.99;42.49
80124;BME280;69433;48.642;9.142;2023-07-24T05:05:17;96155.72;;;24.00;42.75
80124;BME280;69433;48.642;9.142;2023-07-24T05:07:42;96162.16;;;24.02;42.92
80124;BME280;69433;48.642;9.142;2023-07-24T05:10:08;96158.28;;;24.03;42.45
80124;BME280;69433;48.642;9.142;2023-07-24T05:12:33;96163.34;;;24.01;42.53
80124;BME280;69433;48.642;9.142;2023-07-24T05:14:58;96169.47;;;24.02;42.84
80124;BME280;69433;48.642;9.142;2023-07-24T05:17:25;96162.91;;;24.03;42.55
80124;BME280;69433;48.642;9.142;2023-07-24T05:19:50;96164.09;;;24.02;42.89
80124;BME280;69433;48.642;9.142;2023-07-24T05:22:15;96170.94;;;24.03;43.16
80124;BME280;69433;48.642;9.142;2023-07-24T05:24:41;96170.94;;;24.03;42.88
80124;BME280;69433;48.642;9.142;2023-07-24T05:27:07;96170.94;;;24.03;43.35
80124;BME280;69433;48.642;9.142;2023-07-24T05:29:32;96178.28;;;24.02;43.20
80124;BME280;69433;48.642;9.142;2023-07-24T05:32:01;96191.38;;;24.00;43.37
80124;BME280;69433;48.642;9.142;2023-07-24T05:34:26;96191.38;;;24.00;43.43
80124;BME280;69433;48.642;9.142;2023-07-24T05:36:52;96196.00;;;24.00;43.45
80124;BME280;69433;48.642;9.142;2023-07-24T05:39:17;96202.13;;;24.00;43.45
80124;BME280;69433;48.642;9.142;2023-07-24T05:41:42;96204.81;;;24.00;43.89
80124;BME280;69433;48.642;9.142;2023-07-24T05:44:15;96200.47;;;24.03;43.52
80124;BME280;69433;48.642;9.142;2023-07-24T05:46:40;96211.22;;;24.03;43.74
80124;BME280;69433;48.642;9.142;2023-07-24T05:49:05;96209.75;;;24.02;43.49
80124;BME280;69433;48.642;9.142;2023-07-24T05:51:30;96216.59;;;24.03;43.58
80124;BME280;69433;48.642;9.142;2023-07-24T05:53:56;96221.97;;;24.03;43.72
80124;BME280;69433;48.642;9.142;2023-07-24T05:56:28;96215.88;;;24.02;43.69
80124;BME280;69433;48.642;9.142;2023-07-24T05:58:53;96221.66;;;24.01;43.52
80124;BME280;69433;48.642;9.142;2023-07-24T06:01:18;96227.03;;;24.01;43.33
80124;BME280;69433;48.642;9.142;2023-07-24T06:03:44;96235.09;;;24.01;43.36
80124;BME280;69433;48.642;9.142;2023-07-24T06:06:11;96225.19;;;23.98;43.50
80124;BME280;69433;48.642;9.142;2023-07-24T06:08:36;96224.34;;;24.01;43.05
80124;BME280;69433;48.642;9.142;2023-07-24T06:11:01;96221.97;;;24.03;42.79
80124;BME280;69433;48.642;9.142;2023-07-24T06:13:27;96220.50;;;24.02;42.93
80124;BME280;69433;48.642;9.142;2023-07-24T06:15:52;96213.63;;;24.01;42.95
80124;BME280;69433;48.642;9.142;2023-07-24T06:18:18;96213.63;;;24.01;43.01
80124;BME280;69433;48.642;9.142;2023-07-24T06:20:43;96213.28;;;23.99;42.99
80124;BME280;69433;48.642;9.142;2023-07-24T06:23:08;96209.84;;;23.98;42.79
80124;BME280;69433;48.642;9.142;2023-07-24T06:25:33;96198.78;;;23.96;42.76
80124;BME280;69433;48.642;9.142;2023-07-24T06:27:59;96189.53;;;23.97;42.99
80124;BME280;69433;48.642;9.142;2023-07-24T06:30:24;96190.63;;;24.00;42.64
80124;BME280;69433;48.642;9.142;2023-07-24T06:32:51;96184.94;;;23.98;42.78
80124;BME280;69433;48.642;9.142;2023-07-24T06:35:17;96179.88;;;24.00;42.63
80124;BME280;69433;48.642;9.142;2023-07-24T06:37:42;96175.28;;;24.00;42.59
80124;BME280;69433;48.642;9.142;2023-07-24T06:40:08;96178.13;;;24.19;43.11
80124;BME280;69433;48.642;9.142;2023-07-24T06:42:33;96181.88;;;24.34;42.82
80124;BME280;69433;48.642;9.142;2023-07-24T06:44:59;96179.72;;;24.41;42.25
80124;BME280;69433;48.642;9.142;2023-07-24T06:47:26;96177.56;;;24.49;41.79
80124;BME280;69433;48.642;9.142;2023-07-24T06:49:51;96183.88;;;24.55;41.39
80124;BME280;69433;48.642;9.142;2023-07-24T06:52:17;96165.25;;;24.61;41.72
80124;BME280;69433;48.642;9.142;2023-07-24T06:54:42;96166.53;;;24.69;41.06
80124;BME280;69433;48.642;9.142;2023-07-24T06:57:07;96160.91;;;24.76;40.93
80124;BME280;69433;48.642;9.142;2023-07-24T06:59:33;96155.69;;;24.82;41.03
80124;BME280;69433;48.642;9.142;2023-07-24T07:01:58;96152.25;;;24.81;40.62
80124;BME280;69433;48.642;9.142;2023-07-24T07:04:26;96157.69;;;24.90;41.55
80124;BME280;69433;48.642;9.142;2023-07-24T07:06:51;96161.03;;;24.94;41.15
80124;BME280;69433;48.642;9.142;2023-07-24T07:09:16;96179.28;;;24.99;41.21
80124;BME280;69433;48.642;9.142;2023-07-24T07:11:41;96190.38;;;25.01;40.82
80124;BME280;69433;48.642;9.142;2023-07-24T07:14:08;96189.06;;;25.06;41.04
80124;BME280;69433;48.642;9.142;2023-07-24T07:16:36;96196.44;;;25.14;41.94
80124;BME280;69433;48.642;9.142;2023-07-24T07:19:02;96214.25;;;25.21;42.67
80124;BME280;69433;48.642;9.142;2023-07-24T07:21:27;96212.53;;;25.27;42.84
80124;BME280;69433;48.642;9.142;2023-07-24T07:23:53;96207.88;;;25.28;43.48
80124;BME280;69433;48.642;9.142;2023-07-24T07:26:18;96211.75;;;25.27;42.71
80124;BME280;69433;48.642;9.142;2023-07-24T07:28:43;96207.75;;;25.31;42.72
80124;BME280;69433;48.642;9.142;2023-07-24T07:31:12;96208.81;;;25.34;42.76
80124;BME280;69433;48.642;9.142;2023-07-24T07:33:37;96206.88;;;25.34;42.28
80124;BME280;69433;48.642;9.142;2023-07-24T07:36:02;96224.53;;;25.35;42.09
80124;BME280;69433;48.642;9.142;2023-07-24T07:38:29;96221.06;;;25.35;42.53
80124;BME280;69433;48.642;9.142;2023-07-24T07:40:54;96234.53;;;25.35;42.13
80124;BME280;69433;48.642;9.142;2023-07-24T07:43:20;96239.00;;;25.38;42.44
80124;BME280;69433;48.642;9.142;2023-07-24T07:45:46;96238.28;;;25.37;42.10
80124;BME280;69433;48.642;9.142;2023-07-24T07:48:11;96240.53;;;25.39;42.36
80124;BME280;69433;48.642;9.142;2023-07-24T07:50:37;96236.97;;;25.42;41.96
80124;BME280;69433;48.642;9.142;2023-07-24T07:53:02;96242.78;;;25.40;42.04
80124;BME280;69433;48.642;9.142;2023-07-24T07:55:27;96249.22;;;25.43;42.20
80124;BME280;69433;48.642;9.142;2023-07-24T07:57:53;96252.66;;;25.43;42.69
80124;BME280;69433;48.642;9.142;2023-07-24T08:00:18;96255.78;;;25.42;42.86
80124;BME280;69433;48.642;9.142;2023-07-24T08:02:43;96263.56;;;25.40;42.43
80124;BME280;69433;48.642;9.142;2023-07-24T08:05:10;96268.94;;;25.40;42.37
80124;BME280;69433;48.642;9.142;2023-07-24T08:07:35;96259.81;;;25.37;42.31
80124;BME280;69433;48.642;9.142;2023-07-24T08:10:02;96268.19;;;25.39;42.64
80124;BME280;69433;48.642;9.142;2023-07-24T08:12:27;96253.97;;;25.39;42.43
80124;BME280;69433;48.642;9.142;2023-07-24T08:14:53;96254.44;;;25.37;42.44
80124;BME280;69433;48.642;9.142;2023-07-24T08:17:21;96253.97;;;25.39;42.16
80124;BME280;69433;48.642;9.142;2023-07-24T08:19:47;96249.50;;;25.36;41.97
80124;BME280;69433;48.642;9.142;2023-07-24T08:22:12;96236.31;;;25.38;42.06
80124;BME280;69433;48.642;9.142;2023-07-24T08:24:38;96241.72;;;25.38;41.91
80124;BME280;69433;48.642;9.142;2023-07-24T08:27:04;96233.63;;;25.38;42.11
80124;BME280;69433;48.642;9.142;2023-07-24T08:29:29;96230.50;;;25.39;42.41
80124;BME280;69433;48.642;9.142;2023-07-24T08:31:55;96204.34;;;25.40;41.90
80124;BME280;69433;48.642;9.142;2023-07-24T08:34:21;96198.53;;;25.41;42.15
80124;BME280;69433;48.642;9.142;2023-07-24T08:36:46;96197.78;;;25.41;42.03
80124;BME280;69433;48.642;9.142;2023-07-24T08:39:12;96198.09;;;25.43;42.01
80124;BME280;69433;48.642;9.142;2023-07-24T08:41:37;96203.47;;;25.43;41.94
80124;BME280;69433;48.642;9.142;2023-07-24T08:44:07;96176.88;;;25.45;42.19
80124;BME280;69433;48.642;9.142;2023-07-24T08:46:35;96167.63;;;25.46;41.87
80124;BME280;69433;48.642;9.142;2023-07-24T08:49:01;96171.06;;;25.46;42.08
80124;BME280;69433;48.642;9.142;2023-07-24T08:51:27;96166.72;;;25.49;41.69
80124;BME280;69433;48.642;9.142;2023-07-24T08:53:53;96166.28;;;25.50;41.89
80124;BME280;69433;48.642;9.142;2023-07-24T08:56:19;96157.03;;;25.51;41.97
80124;BME280;69433;48.642;9.142;2023-07-24T08:58:45;96170.78;;;25.54;42.00
80124;BME280;69433;48.642;9.142;2023-07-24T09:01:10;96182.63;;;25.56;41.76
80124;BME280;69433;48.642;9.142;2023-07-24T09:03:36;96167.94;;;25.57;41.51
80124;BME280;69433;48.642;9.142;2023-07-24T09:06:02;96172.91;;;25.59;41.95
80124;BME280;69433;48.642;9.142;2023-07-24T09:08:53;96175.94;;;25.61;41.46
80124;BME280;69433;48.642;9.142;2023-07-24T09:11:18;96176.69;;;25.61;41.69
80124;BME280;69433;48.642;9.142;2023-07-24T09:13:43;96164.41;;;25.60;41.57
80124;BME280;69433;48.642;9.142;2023-07-24T09:16:20;96162.13;;;25.59;41.40
80124;BME280;69433;48.642;9.142;2023-07-24T09:18:46;96158.69;;;25.58;41.73
80124;BME280;69433;48.642;9.142;2023-07-24T09:21:11;96153.66;;;25.60;41.54
80124;BME280;69433;48.642;9.142;2023-07-24T09:23:37;96153.66;;;25.60;41.67
80124;BME280;69433;48.642;9.142;2023-07-24T09:26:06;96156.34;;;25.60;41.67
80124;BME280;69433;48.642;9.142;2023-07-24T09:28:33;96152.13;;;25.59;41.71
80124;BME280;69433;48.642;9.142;2023-07-24T09:30:59;96145.22;;;25.58;41.44
80124;BME280;69433;48.642;9.142;2023-07-24T09:33:38;96134.47;;;25.58;41.61
80124;BME280;69433;48.642;9.142;2023-07-24T09:36:05;96130.59;;;25.59;41.33
80124;BME280;69433;48.642;9.142;2023-07-24T09:38:32;96129.81;;;25.59;41.47
80124;BME280;69433;48.642;9.142;2023-07-24T09:40:57;96130.59;;;25.59;41.38
80124;BME280;69433;48.642;9.142;2023-07-24T09:43:25;96134.47;;;25.58;41.42
80124;BME280;69433;48.642;9.142;2023-07-24T09:45:52;96145.22;;;25.58;41.59
80124;BME280;69433;48.642;9.142;2023-07-24T09:48:18;96145.56;;;25.60;41.29
80124;BME280;69433;48.642;9.142;2023-07-24T09:50:46;96152.88;;;25.60;41.32
80124;BME280;69433;48.642;9.142;2023-07-24T09:53:50;96173.66;;;25.59;41.24
80124;BME280;69433;48.642;9.142;2023-07-24T09:56:19;96180.22;;;25.58;41.57
80124;BME280;69433;48.642;9.142;2023-07-24T09:58:47;96200.56;;;25.59;41.30
80124;BME280;69433;48.642;9.142;2023-07-24T10:01:15;96205.94;;;25.59;41.18
80124;BME280;69433;48.642;9.142;2023-07-24T10:03:46;96209.81;;;25.58;41.23
80124;BME280;69433;48.642;9.142;2023-07-24T10:06:11;96219.75;;;25.61;41.33
80124;BME280;69433;48.642;9.142;2023-07-24T10:08:40;96220.31;;;25.56;41.34
80124;BME280;69433;48.642;9.142;2023-07-24T10:11:07;96216.88;;;25.56;41.08
80124;BME280;69433;48.642;9.142;2023-07-24T10:13:33;96205.63;;;25.57;41.69
80124;BME280;69433;48.642;9.142;2023-07-24T10:16:02;96219.84;;;25.58;41.40
80124;BME280;69433;48.642;9.142;2023-07-24T10:18:29;96236.75;;;25.58;41.42
80124;BME280;69433;48.642;9.142;2023-07-24T10:21:09;96229.84;;;25.57;41.06
80124;BME280;69433;48.642;9.142;2023-07-24T10:23:35;96227.63;;;25.56;41.33
80124;BME280;69433;48.642;9.142;2023-07-24T10:26:05;96240.63;;;25.57;41.28
80124;BME280;69433;48.642;9.142;2023-07-24T10:28:35;96259.47;;;25.57;41.72
80124;BME280;69433;48.642;9.142;2023-07-24T10:31:04;96255.59;;;25.58;41.44
80124;BME280;69433;48.642;9.142;2023-07-24T10:33:35;96267.53;;;25.57;41.76
80124;BME280;69433;48.642;9.142;2023-07-24T10:36:07;96263.66;;;25.58;41.49
80124;BME280;69433;48.642;9.142;2023-07-24T10:38:39;96269.50;;;25.57;41.68
80124;BME280;69433;48.642;9.142;2023-07-24T10:41:06;96283.69;;;25.57;41.79
80124;BME280;69433;48.642;9.142;2023-07-24T10:43:49;96283.41;;;25.55;41.72
80124;BME280;69433;48.642;9.142;2023-07-24T10:46:17;96296.84;;;25.55;41.62
80124;BME280;69433;48.642;9.142;2023-07-24T10:48:45;96298.38;;;25.56;41.75
80124;BME280;69433;48.642;9.142;2023-07-24T10:51:11;96295.66;;;25.56;41.65
80124;BME280;69433;48.642;9.142;2023-07-24T10:53:43;96305.22;;;25.57;41.89
80124;BME280;69433;48.642;9.142;2023-07-24T10:56:09;96304.50;;;25.57;42.04
80124;BME280;69433;48.642;9.142;2023-07-24T10:58:34;96292.22;;;25.56;42.25
80124;BME280;69433;48.642;9.142;2023-07-24T11:01:03;96304.50;;;25.57;42.40
80124;BME280;69433;48.642;9.142;2023-07-24T11:03:30;96296.41;;;25.57;42.62
80124;BME280;69433;48.642;9.142;2023-07-24T11:05:57;96294.47;;;25.57;43.03
80124;BME280;69433;48.642;9.142;2023-07-24T11:08:23;96250.03;;;25.52;43.53
80124;BME280;69433;48.642;9.142;2023-07-24T11:10:52;96255.28;;;25.56;43.20
80124;BME280;69433;48.642;9.142;2023-07-24T11:13:25;96280.56;;;25.59;43.45
80124;BME280;69433;48.642;9.142;2023-07-24T11:15:51;96299.41;;;25.59;44.02
80124;BME280;69433;48.642;9.142;2023-07-24T11:18:18;96283.59;;;25.61;43.69
80124;BME280;69433;48.642;9.142;2023-07-24T11:20:54;96246.22;;;25.63;43.85
80124;BME280;69433;48.642;9.142;2023-07-24T11:23:20;96229.31;;;25.62;43.52
80124;BME280;69433;48.642;9.142;2023-07-24T11:25:46;96210.47;;;25.62;43.63
80124;BME280;69433;48.642;9.142;2023-07-24T11:28:13;96182.22;;;25.67;43.53
80124;BME280;69433;48.642;9.142;2023-07-24T11:30:39;96154.13;;;25.68;43.47
80124;BME280;69433;48.642;9.142;2023-07-24T11:33:06;96116.00;;;25.69;43.55
80124;BME280;69433;48.642;9.142;2023-07-24T11:35:33;96097.59;;;25.77;43.36
80124;BME280;69433;48.642;9.142;2023-07-24T11:37:58;96085.81;;;25.83;43.00
80124;BME280;69433;48.642;9.142;2023-07-24T11:40:38;96098.38;;;25.86;43.01
80124;BME280;69433;48.642;9.142;2023-07-24T11:43:04;96115.91;;;25.91;43.08
80124;BME280;69433;48.642;9.142;2023-07-24T11:45:30;96122.34;;;25.94;43.02
80124;BME280;69433;48.642;9.142;2023-07-24T11:47:56;96127.72;;;25.94;42.89
80124;BME280;69433;48.642;9.142;2023-07-24T11:50:22;96130.88;;;25.92;42.90
80124;BME280;69433;48.642;9.142;2023-07-24T11:52:49;96126.97;;;25.93;43.06
80124;BME280;69433;48.642;9.142;2023-07-24T11:55:17;96131.63;;;25.93;42.90
80124;BME280;69433;48.642;9.142;2023-07-24T11:57:43;96136.25;;;25.92;43.06
80124;BME280;69433;48.642;9.142;2023-07-24T12:00:21;96149.56;;;25.96;42.81
80124;BME280;69433;48.642;9.142;2023-07-24T12:02:47;96161.38;;;25.98;42.69
80124;BME280;69433;48.642;9.142;2023-07-24T12:05:13;96163.03;;;26.05;42.69
80124;BME280;69433;48.642;9.142;2023-07-24T12:07:38;96179.06;;;26.08;42.53
80124;BME280;69433;48.642;9.142;2023-07-24T12:10:05;96180.88;;;26.11;42.54
80124;BME280;69433;48.642;9.142;2023-07-24T12:12:39;96170.41;;;26.13;42.33
80124;BME280;69433;48.642;9.142;2023-07-24T12:15:06;96179.84;;;26.18;42.11
80124;BME280;69433;48.642;9.142;2023-07-24T12:17:31;96176.25;;;26.21;42.08
80124;BME280;69433;48.642;9.142;2023-07-24T12:19:56;96176.25;;;26.21;42.09
80124;BME280;69433;48.642;9.142;2023-07-24T12:22:24;96161.59;;;26.22;42.23
80124;BME280;69433;48.642;9.142;2023-07-24T12:24:49;96170.28;;;26.26;42.02
80124;BME280;69433;48.642;9.142;2023-07-24T12:27:15;96161.03;;;26.27;41.99
80124;BME280;69433;48.642;9.142;2023-07-24T12:29:40;96154.44;;;26.28;42.09
80124;BME280;69433;48.642;9.142;2023-07-24T12:32:05;96143.97;;;26.30;42.02
80124;BME280;69433;48.642;9.142;2023-07-24T12:34:31;96150.88;;;26.31;41.75
80124;BME280;69433;48.642;9.142;2023-07-24T12:36:56;96148.00;;;26.35;41.48
80124;BME280;69433;48.642;9.142;2023-07-24T12:39:21;96148.31;;;26.37;41.69
80124;BME280;69433;48.642;9.142;2023-07-24T12:41:47;96132.13;;;26.37;41.62
80124;BME280;69433;48.642;9.142;2023-07-24T12:44:12;96125.56;;;26.38;41.60
80124;BME280;69433;48.642;9.142;2023-07-24T12:46:39;96136.78;;;26.36;41.72
80124;BME280;69433;48.642;9.142;2023-07-24T12:49:04;96125.41;;;26.32;41.72
80124;BME280;69433;48.642;9.142;2023-07-24T12:51:29;96115.84;;;26.31;41.67
80124;BME280;69433;48.642;9.142;2023-07-24T12:53:54;96108.94;;;26.30;41.75
80124;BME280;69433;48.642;9.142;2023-07-24T12:56:20;96101.16;;;26.32;41.66
80124;BME280;69433;48.642;9.142;2023-07-24T12:58:45;96089.47;;;26.35;41.65
80124;BME280;69433;48.642;9.142;2023-07-24T13:01:10;96096.66;;;26.38;41.58